createdAt,value
2022-08-21T00:03:13.174Z,18.83
2022-08-21T00:08:16.235Z,18.81
2022-08-21T00:13:21.030Z,18.76
2022-08-21T00:18:25.367Z,18.73
2022-08-21T00:23:28.199Z,18.70
2022-08-21T00:28:31.303Z,18.69
2022-08-21T00:33:35.012Z,18.70
2022-08-21T00:38:38.196Z,18.70
2022-08-21T00:43:41.487Z,18.69
2022-08-21T00:48:44.285Z,18.66
2022-08-21T00:53:51.743Z,18.61
2022-08-21T00:58:59.335Z,18.57
2022-08-21T01:04:02.626Z,18.54
2022-08-21T01:09:05.751Z,18.52
2022-08-21T01:14:08.772Z,18.47
2022-08-21T01:19:12.907Z,18.42
2022-08-21T01:24:15.994Z,18.37
2022-08-21T01:29:44.420Z,18.36
2022-08-21T01:34:50.188Z,18.34
2022-08-21T01:39:53.254Z,18.34
2022-08-21T01:44:56.323Z,18.31
2022-08-21T01:49:59.423Z,18.28
2022-08-21T01:55:04.037Z,18.30
2022-08-21T02:00:11.948Z,18.30
2022-08-21T02:05:14.795Z,18.30
2022-08-21T02:10:29.115Z,18.28
2022-08-21T02:15:32.441Z,18.28
2022-08-21T02:20:55.742Z,18.27
2022-08-21T02:26:03.035Z,18.25
2022-08-21T02:31:07.891Z,18.23
2022-08-21T02:36:12.392Z,18.17
2022-08-21T02:41:21.854Z,18.15
2022-08-21T02:46:24.891Z,18.12
2022-08-21T02:51:27.833Z,18.10
2022-08-21T02:56:31.651Z,18.08
2022-08-21T03:01:34.801Z,18.05
2022-08-21T03:06:37.891Z,18.04
2022-08-21T03:11:40.758Z,18.04
2022-08-21T03:16:43.534Z,18.01
2022-08-21T03:21:46.589Z,17.99
2022-08-21T03:26:50.036Z,17.97
2022-08-21T03:31:55.112Z,17.98
2022-08-21T03:36:57.972Z,17.99
2022-08-21T03:42:01.089Z,17.99
2022-08-21T03:47:05.545Z,18.00
2022-08-21T03:52:08.438Z,18.00
2022-08-21T03:57:12.054Z,18.01
2022-08-21T04:02:19.331Z,18.03
2022-08-21T04:07:22.292Z,18.03
2022-08-21T04:12:25.252Z,18.05
2022-08-21T04:17:28.214Z,18.07
2022-08-21T04:22:32.472Z,18.11
2022-08-21T04:27:35.979Z,18.14
2022-08-21T04:32:42.701Z,18.18
2022-08-21T04:37:45.639Z,18.23
2022-08-21T04:42:51.379Z,18.28
2022-08-21T04:47:59.643Z,18.32
2022-08-21T04:53:02.599Z,18.35
2022-08-21T04:58:10.023Z,18.40
2022-08-21T05:03:15.046Z,18.43
2022-08-21T05:08:22.528Z,18.51
2022-08-21T05:13:25.552Z,18.58
2022-08-21T05:18:28.469Z,18.59
2022-08-21T05:23:33.582Z,18.62
2022-08-21T05:28:36.609Z,18.68
2022-08-21T05:33:39.844Z,18.66
2022-08-21T05:38:47.702Z,18.68
2022-08-21T05:43:50.841Z,18.70
2022-08-21T05:48:53.688Z,18.75
2022-08-21T05:53:56.420Z,18.80
2022-08-21T05:58:59.362Z,18.84
2022-08-21T06:04:02.507Z,18.90
2022-08-21T06:09:06.590Z,18.94
2022-08-21T06:14:09.369Z,19.00
2022-08-21T06:19:12.771Z,19.06
2022-08-21T06:24:16.232Z,19.14
2022-08-21T06:29:20.776Z,19.27
2022-08-21T06:34:23.794Z,19.41
2022-08-21T06:39:30.577Z,19.55
2022-08-21T06:44:33.717Z,19.66
2022-08-21T06:49:37.690Z,19.77
2022-08-21T06:54:42.120Z,19.90
2022-08-21T06:59:44.848Z,20.07
2022-08-21T07:04:47.590Z,20.13
2022-08-21T07:09:50.369Z,20.26
2022-08-21T07:14:53.226Z,20.40
2022-08-21T07:19:56.142Z,20.57
2022-08-21T07:24:58.943Z,20.71
2022-08-21T07:30:01.845Z,20.85
2022-08-21T07:35:05.263Z,20.96
2022-08-21T07:40:09.071Z,21.05
2022-08-21T07:45:13.161Z,21.12
2022-08-21T07:50:16.963Z,21.15
2022-08-21T07:55:22.659Z,21.17
2022-08-21T08:00:28.708Z,21.20
2022-08-21T08:05:32.953Z,21.32
2022-08-21T08:10:36.825Z,21.53
2022-08-21T08:15:39.619Z,21.77
2022-08-21T08:20:42.614Z,22.00
2022-08-21T08:25:46.084Z,22.20
2022-08-21T08:30:50.249Z,22.38
2022-08-21T08:35:53.284Z,22.44
2022-08-21T08:41:13.519Z,22.37
2022-08-21T08:46:20.221Z,22.32
2022-08-21T08:51:34.009Z,22.25
2022-08-21T08:56:37.355Z,22.21
2022-08-21T09:01:40.306Z,22.32
2022-08-21T09:07:26.985Z,22.51
2022-08-21T09:12:40.990Z,22.58
2022-08-21T09:18:11.147Z,22.64
2022-08-21T09:23:51.267Z,22.74
2022-08-21T09:28:59.109Z,22.81
2022-08-21T09:34:10.145Z,22.81
2022-08-21T09:39:31.319Z,22.85
2022-08-21T09:44:41.568Z,22.84
2022-08-21T09:49:45.134Z,22.87
2022-08-21T09:54:55.453Z,22.88
2022-08-21T10:00:23.992Z,22.83
2022-08-21T10:05:28.334Z,22.82
2022-08-21T10:10:37.530Z,22.79
2022-08-21T10:16:02.775Z,22.70
2022-08-21T10:21:26.700Z,22.64
2022-08-21T10:26:37.254Z,22.59
2022-08-21T10:32:03.887Z,22.56
2022-08-21T10:37:37.399Z,22.53
2022-08-21T10:42:58.724Z,22.50
2022-08-21T10:48:09.084Z,22.46
2022-08-21T10:53:35.723Z,22.44
2022-08-21T10:58:50.884Z,22.43
2022-08-21T11:04:10.126Z,22.48
2022-08-21T11:09:18.585Z,22.53
2022-08-21T11:14:50.338Z,22.60
2022-08-21T11:20:39.137Z,22.73
2022-08-21T11:25:48.216Z,22.95
2022-08-21T11:31:45.272Z,23.18
2022-08-21T11:37:39.083Z,23.44
2022-08-21T11:43:12.006Z,23.48
2022-08-21T11:49:05.413Z,23.41
2022-08-21T11:54:36.631Z,23.43
2022-08-21T11:59:58.376Z,23.45
2022-08-21T12:05:09.431Z,23.53
2022-08-21T12:10:22.062Z,23.61
2022-08-21T12:15:29.782Z,23.75
2022-08-21T12:20:57.357Z,23.89
2022-08-21T12:26:32.352Z,24.02
2022-08-21T12:31:36.140Z,24.01
2022-08-21T12:37:15.757Z,24.02
2022-08-21T12:42:32.521Z,23.98
2022-08-21T12:48:05.232Z,23.87
2022-08-21T12:53:18.513Z,23.67
2022-08-21T12:58:25.806Z,23.56
2022-08-21T13:03:29.312Z,23.44
2022-08-21T13:08:40.899Z,23.35
2022-08-21T13:13:51.526Z,23.30
2022-08-21T13:19:09.580Z,23.22
2022-08-21T13:24:45.668Z,23.20
2022-08-21T13:29:53.297Z,23.17
2022-08-21T13:34:58.819Z,23.17
2022-08-21T13:40:01.896Z,23.09
2022-08-21T13:45:05.483Z,22.94
2022-08-21T13:50:09.860Z,22.85
2022-08-21T13:55:18.472Z,22.65
2022-08-21T14:00:29.354Z,22.54
2022-08-21T14:05:36.448Z,22.43
2022-08-21T14:10:49.268Z,22.40
2022-08-21T14:16:02.523Z,22.32
2022-08-21T14:21:10.658Z,22.25
2022-08-21T14:26:13.607Z,22.17
2022-08-21T14:31:21.544Z,22.11
2022-08-21T14:36:25.530Z,22.09
2022-08-21T14:41:30.417Z,22.06
2022-08-21T14:46:36.513Z,22.02
2022-08-21T14:51:54.351Z,21.97
2022-08-21T14:57:00.981Z,21.95
2022-08-21T15:02:07.726Z,21.96
2022-08-21T15:07:10.715Z,21.95
2022-08-21T15:12:15.889Z,21.92
2022-08-21T15:17:18.789Z,21.85
2022-08-21T15:22:27.910Z,21.79
2022-08-21T15:27:32.379Z,21.75
2022-08-21T15:32:35.215Z,21.69
2022-08-21T15:37:38.387Z,21.61
2022-08-21T15:42:43.018Z,21.56
2022-08-21T15:47:49.020Z,21.46
2022-08-21T15:52:52.880Z,21.41
2022-08-21T15:57:59.931Z,21.31
2022-08-21T16:03:07.384Z,21.15
2022-08-21T16:08:11.876Z,20.92
2022-08-21T16:13:32.695Z,20.66
2022-08-21T16:18:35.595Z,20.44
2022-08-21T16:23:40.379Z,20.23
2022-08-21T16:28:46.461Z,20.09
2022-08-21T16:33:57.834Z,19.90
2022-08-21T16:39:02.063Z,19.77
2022-08-21T16:44:06.900Z,19.68
2022-08-21T16:49:10.296Z,19.63
2022-08-21T16:54:14.047Z,19.60
2022-08-21T16:59:17.755Z,19.57
2022-08-21T17:04:21.032Z,19.55
2022-08-21T17:09:23.953Z,19.53
2022-08-21T17:14:26.805Z,19.48
2022-08-21T17:19:29.700Z,19.44
2022-08-21T17:24:32.772Z,19.34
2022-08-21T17:29:40.164Z,19.28
2022-08-21T17:34:43.186Z,19.21
2022-08-21T17:39:46.090Z,19.14
2022-08-21T17:44:49.174Z,19.08
2022-08-21T17:49:52.054Z,19.02
2022-08-21T17:54:55.199Z,18.95
2022-08-21T17:59:58.643Z,18.91
2022-08-21T18:05:01.936Z,18.87
2022-08-21T18:10:13.572Z,18.86
2022-08-21T18:15:19.513Z,18.85
2022-08-21T18:20:24.610Z,18.88
2022-08-21T18:25:28.855Z,18.92
2022-08-21T18:30:34.556Z,18.97
2022-08-21T18:35:38.150Z,19.01
2022-08-21T18:40:55.127Z,19.01
2022-08-21T18:45:58.697Z,18.98
2022-08-21T18:51:01.890Z,18.96
2022-08-21T18:56:07.110Z,18.87
2022-08-21T19:01:18.321Z,18.78
2022-08-21T19:06:21.323Z,18.73
2022-08-21T19:11:26.083Z,18.68
2022-08-21T19:16:29.299Z,18.63
2022-08-21T19:21:32.470Z,18.62
2022-08-21T19:26:35.724Z,18.58
2022-08-21T19:31:44.695Z,18.52
2022-08-21T19:36:48.043Z,18.49
2022-08-21T19:41:56.776Z,18.46
2022-08-21T19:47:00.788Z,18.45
2022-08-21T19:52:13.164Z,18.42
2022-08-21T19:57:17.479Z,18.41
2022-08-21T20:02:20.546Z,18.38
2022-08-21T20:07:26.543Z,18.36
2022-08-21T20:12:30.252Z,18.33
2022-08-21T20:17:33.077Z,18.31
2022-08-21T20:22:36.541Z,18.28
2022-08-21T20:33:03.235Z,18.22
2022-08-21T20:38:06.544Z,18.18
2022-08-21T20:43:12.658Z,18.14
2022-08-21T20:48:28.531Z,18.08
2022-08-21T20:54:01.166Z,18.02
2022-08-21T20:59:33.739Z,17.96
2022-08-21T21:04:56.074Z,17.93
2022-08-21T21:10:05.999Z,17.91
2022-08-21T21:15:26.016Z,17.92
2022-08-21T21:20:46.980Z,17.90
2022-08-21T21:26:23.917Z,17.88
2022-08-21T21:31:32.621Z,17.87
2022-08-21T21:36:58.906Z,17.88
2022-08-21T21:42:37.343Z,17.90
2022-08-21T21:47:56.071Z,17.93
2022-08-21T21:53:36.111Z,17.96
2022-08-21T21:59:25.981Z,18.01
2022-08-21T22:04:53.856Z,18.07
2022-08-21T22:10:19.864Z,18.12
2022-08-21T22:15:33.303Z,18.17
2022-08-21T22:20:56.186Z,18.20
2022-08-21T22:26:12.773Z,18.22
2022-08-21T22:31:34.633Z,18.23
2022-08-21T22:42:20.899Z,18.22
2022-08-21T22:47:33.735Z,18.20
2022-08-21T22:52:44.885Z,18.11
2022-08-21T22:57:48.155Z,17.98
2022-08-21T23:02:57.010Z,17.81
2022-08-21T23:08:24.019Z,17.71
2022-08-21T23:13:37.748Z,17.66
2022-08-21T23:19:19.425Z,17.64
2022-08-21T23:24:33.674Z,17.62
2022-08-21T23:30:01.437Z,17.66
2022-08-21T23:35:59.769Z,17.73
2022-08-21T23:41:34.443Z,17.72
2022-08-21T23:46:50.581Z,17.72
2022-08-21T23:52:27.390Z,17.73
2022-08-21T23:57:48.944Z,17.75
